Time;durP1;ratioP1;P1;durP2;ratioP2;P2;SDS_P1;SDS_P2;PMS_P1;PMS_P2;Temp;Humidity;BMP_temperature;BMP_pressure;BME280_temperature;BME280_humidity;BME280_pressure;Samples;Min_cycle;Max_cycle;Signal;HPM_P1;HPM_P2
2024/01/17 00:01:30;;;;;;;32.50;18.27;;;-0.40;99.90;;;;;;5088331;28;20624;-77
2024/01/17 00:03:56;;;;;;;29.90;18.55;;;-0.40;99.90;;;;;;5077227;28;20119;-77
2024/01/17 00:06:21;;;;;;;32.78;19.02;;;-0.40;99.90;;;;;;5082628;28;20094;-77
2024/01/17 00:08:47;;;;;;;26.85;18.02;;;-0.40;99.90;;;;;;5082862;28;20128;-77
2024/01/17 00:11:12;;;;;;;24.23;17.38;;;-0.40;99.90;;;;;;5082984;28;20040;-77
2024/01/17 00:13:38;;;;;;;23.17;17.30;;;-0.40;99.90;;;;;;5081263;28;20040;-77
2024/01/17 00:16:04;;;;;;;23.33;18.42;;;-0.40;99.90;;;;;;5076848;28;20036;-77
2024/01/17 00:18:30;;;;;;;31.15;19.15;;;-0.40;99.90;;;;;;5075447;28;20083;-77
2024/01/17 00:20:56;;;;;;;29.80;18.40;;;-0.40;99.90;;;;;;5081657;28;20047;-77
2024/01/17 00:23:21;;;;;;;29.75;19.20;;;-0.40;99.90;;;;;;5077284;28;20045;-77
2024/01/17 00:25:47;;;;;;;30.80;19.20;;;-0.40;99.90;;;;;;5086897;28;20055;-77
2024/01/17 00:28:14;;;;;;;37.10;20.58;;;-0.50;99.90;;;;;;5087447;28;20052;-77
2024/01/17 00:30:39;;;;;;;30.17;19.42;;;-0.40;99.90;;;;;;5074048;28;20542;-77
2024/01/17 00:33:05;;;;;;;33.50;21.05;;;-0.50;99.90;;;;;;5085223;28;20074;-77
2024/01/17 00:35:30;;;;;;;31.58;21.08;;;-0.50;99.90;;;;;;5087573;28;20056;-76
2024/01/17 00:37:56;;;;;;;26.33;19.67;;;-0.50;99.90;;;;;;5080953;28;20110;-77
2024/01/17 00:40:22;;;;;;;38.88;22.95;;;-0.50;99.90;;;;;;5076113;28;20062;-77
2024/01/17 00:42:48;;;;;;;36.55;22.60;;;-0.50;99.90;;;;;;5084111;28;20044;-77
2024/01/17 00:45:14;;;;;;;36.47;21.95;;;-0.50;99.90;;;;;;5079833;28;20436;-77
2024/01/17 00:47:40;;;;;;;38.20;22.65;;;-0.50;99.90;;;;;;5085816;28;20177;-77
2024/01/17 00:50:06;;;;;;;30.92;23.05;;;-0.50;99.90;;;;;;5078204;28;20135;-77
2024/01/17 00:52:31;;;;;;;31.05;24.40;;;-0.50;99.90;;;;;;5076848;28;20433;-77
2024/01/17 00:54:58;;;;;;;14.38;6.85;;;-0.50;99.90;;;;;;5086001;28;20048;-76
2024/01/17 00:57:23;;;;;;;37.28;25.38;;;-0.60;99.90;;;;;;5071585;28;20044;-77
2024/01/17 00:59:49;;;;;;;34.08;26.58;;;-0.60;99.90;;;;;;5087325;28;20048;-77
2024/01/17 01:02:15;;;;;;;39.35;26.63;;;-0.60;99.90;;;;;;5071481;28;20078;-77
2024/01/17 01:04:40;;;;;;;46.30;28.27;;;-0.60;99.90;;;;;;5078532;28;20044;-77
2024/01/17 01:07:06;;;;;;;40.42;26.77;;;-0.60;99.90;;;;;;5077712;28;20055;-77
2024/01/17 01:09:31;;;;;;;33.70;26.98;;;-0.60;99.90;;;;;;5077699;28;20823;-77
2024/01/17 01:11:57;;;;;;;38.38;29.17;;;-0.60;99.90;;;;;;5082510;28;20055;-77
2024/01/17 01:14:23;;;;;;;40.40;28.85;;;-0.60;99.90;;;;;;5075397;28;20055;-77
2024/01/17 01:16:48;;;;;;;44.45;28.63;;;-0.60;99.90;;;;;;5073913;28;20082;-75
2024/01/17 01:19:14;;;;;;;44.45;32.05;;;-0.60;99.90;;;;;;5069744;28;20048;-77
2024/01/17 01:21:40;;;;;;;40.83;30.05;;;-0.70;99.90;;;;;;5082948;28;20498;-76
2024/01/17 01:24:06;;;;;;;44.03;30.55;;;-0.70;99.90;;;;;;5089633;28;20063;-77
2024/01/17 01:26:35;;;;;;;45.72;30.75;;;-0.70;99.90;;;;;;5080260;28;20047;-77
2024/01/17 01:29:01;;;;;;;48.30;31.83;;;-0.70;99.90;;;;;;5078402;28;20048;-77
2024/01/17 01:31:27;;;;;;;50.08;31.75;;;-0.70;99.90;;;;;;5081370;28;20032;-77
2024/01/17 01:33:53;;;;;;;50.75;30.73;;;-0.70;99.90;;;;;;5086502;28;20063;-77
2024/01/17 01:36:19;;;;;;;45.65;31.55;;;-0.70;99.90;;;;;;5091598;28;20047;-78
2024/01/17 01:38:45;;;;;;;43.33;31.33;;;-0.70;99.90;;;;;;5080737;28;20405;-77
2024/01/17 01:41:11;;;;;;;38.10;29.30;;;-0.70;99.90;;;;;;5073157;28;20056;-77
2024/01/17 01:43:36;;;;;;;42.95;29.80;;;-0.70;99.90;;;;;;5073731;28;20818;-78
2024/01/17 01:46:20;;;;;;;40.15;31.27;;;-0.70;99.90;;;;;;5075605;28;20413;-77
2024/01/17 01:48:48;;;;;;;39.03;32.15;;;-0.70;99.90;;;;;;5087325;28;20048;-77
2024/01/17 01:51:16;;;;;;;45.05;32.83;;;-0.60;99.90;;;;;;5085613;28;20422;-77
2024/01/17 01:53:44;;;;;;;44.67;32.83;;;-0.70;99.90;;;;;;5077704;28;20048;-77
2024/01/17 01:56:19;;;;;;;17.67;8.40;;;-0.70;99.90;;;;;;5074464;28;20513;-77
2024/01/17 01:58:48;;;;;;;41.88;30.98;;;-0.70;99.90;;;;;;5085966;28;20421;-77
2024/01/17 02:01:17;;;;;;;46.20;34.15;;;-0.70;99.90;;;;;;5078250;28;20040;-77
2024/01/17 02:03:44;;;;;;;46.60;32.67;;;-0.70;99.90;;;;;;5084427;28;20059;-77
2024/01/17 02:06:14;;;;;;;46.97;34.28;;;-0.70;99.90;;;;;;5072414;28;20056;-77
2024/01/17 02:08:40;;;;;;;56.20;36.63;;;-0.70;99.90;;;;;;5075924;28;20175;-77
2024/01/17 02:11:06;;;;;;;19.02;8.98;;;-0.70;99.90;;;;;;5081260;28;20138;-77
2024/01/17 02:13:32;;;;;;;47.20;35.28;;;-0.70;99.90;;;;;;5078176;28;20476;-77
2024/01/17 02:15:59;;;;;;;47.92;37.53;;;-0.70;99.90;;;;;;5078183;28;20044;-77
2024/01/17 02:18:25;;;;;;;45.25;37.13;;;-0.70;99.90;;;;;;5074107;28;20517;-77
2024/01/17 02:20:50;;;;;;;51.88;37.33;;;-0.70;99.90;;;;;;5054612;28;20048;-77
2024/01/17 02:23:26;;;;;;;47.80;38.72;;;-0.70;99.90;;;;;;5070094;28;20597;-77
2024/01/17 02:25:53;;;;;;;51.25;40.58;;;-0.70;99.90;;;;;;5078564;28;20049;-78
2024/01/17 02:28:19;;;;;;;52.38;40.22;;;-0.70;99.90;;;;;;5069488;28;20056;-77
2024/01/17 02:30:45;;;;;;;50.47;40.10;;;-0.70;99.90;;;;;;5080092;28;20048;-78
2024/01/17 02:33:13;;;;;;;55.47;41.45;;;-0.70;99.90;;;;;;5076479;28;20386;-77
2024/01/17 02:35:39;;;;;;;54.92;37.60;;;-0.70;99.90;;;;;;5073163;28;20037;-77
2024/01/17 02:38:04;;;;;;;58.13;40.78;;;-0.80;99.90;;;;;;5073016;28;20056;-77
2024/01/17 02:40:30;;;;;;;50.47;41.78;;;-0.80;99.90;;;;;;5082349;28;20164;-78
2024/01/17 02:42:56;;;;;;;52.95;39.65;;;-0.70;99.90;;;;;;5072434;28;20051;-78
2024/01/17 02:45:21;;;;;;;59.40;43.58;;;-0.80;99.90;;;;;;5071007;28;20134;-78
2024/01/17 02:47:47;;;;;;;54.42;39.53;;;-0.70;99.90;;;;;;5065572;28;20051;-78
2024/01/17 02:50:14;;;;;;;56.67;42.53;;;-0.80;99.90;;;;;;5071723;28;20040;-78
2024/01/17 02:52:50;;;;;;;50.80;42.00;;;-0.80;99.90;;;;;;5069198;28;20052;-77
2024/01/17 02:55:18;;;;;;;56.35;42.92;;;-0.80;99.90;;;;;;5080924;28;20067;-77
2024/01/17 02:57:45;;;;;;;54.20;41.92;;;-0.80;99.90;;;;;;5085312;28;20048;-77
2024/01/17 03:00:11;;;;;;;60.20;42.28;;;-0.80;99.90;;;;;;5071280;28;20515;-77
2024/01/17 03:02:37;;;;;;;53.05;40.92;;;-0.80;99.90;;;;;;5069874;28;20402;-77
2024/01/17 03:05:03;;;;;;;53.17;42.17;;;-0.80;99.90;;;;;;5078000;28;20051;-77
2024/01/17 03:07:30;;;;;;;52.97;41.88;;;-0.80;99.90;;;;;;5077853;28;20190;-77
2024/01/17 03:09:56;;;;;;;55.70;43.63;;;-0.80;99.90;;;;;;5076270;28;20044;-77
2024/01/17 03:12:22;;;;;;;56.20;42.40;;;-0.80;99.90;;;;;;5078456;28;21130;-77
2024/01/17 03:14:47;;;;;;;54.65;43.40;;;-0.80;99.90;;;;;;5078572;28;20127;-77
2024/01/17 03:17:13;;;;;;;57.78;43.70;;;-0.80;99.90;;;;;;5081467;28;20066;-77
2024/01/17 03:19:39;;;;;;;59.40;40.58;;;-0.80;99.90;;;;;;5083338;28;20105;-77
2024/01/17 03:22:04;;;;;;;53.88;42.28;;;-0.90;99.90;;;;;;5084306;28;20047;-77
2024/01/17 03:24:30;;;;;;;56.38;42.22;;;-0.90;99.90;;;;;;5082238;28;20584;-77
2024/01/17 03:26:56;;;;;;;51.15;41.53;;;-0.90;99.90;;;;;;5074272;28;20044;-77
2024/01/17 03:29:21;;;;;;;53.75;41.42;;;-0.90;99.90;;;;;;5067575;28;20052;-77
2024/01/17 03:31:47;;;;;;;53.75;40.17;;;-0.90;99.90;;;;;;5068974;28;20082;-77
2024/01/17 03:34:13;;;;;;;56.55;41.55;;;-0.90;99.90;;;;;;5083730;28;20048;-77
2024/01/17 03:36:38;;;;;;;60.17;44.63;;;-0.90;99.90;;;;;;5063157;28;20044;-77
2024/01/17 03:39:04;;;;;;;58.80;41.92;;;-0.90;99.90;;;;;;5082566;28;20067;-77
2024/01/17 03:41:30;;;;;;;56.88;41.92;;;-0.90;99.90;;;;;;5077963;28;20040;-77
2024/01/17 03:43:57;;;;;;;52.13;42.58;;;-0.90;99.90;;;;;;5053409;28;20048;-77
2024/01/17 03:46:24;;;;;;;54.25;42.13;;;-0.90;99.90;;;;;;5074206;28;20068;-77
2024/01/17 03:48:49;;;;;;;66.50;42.97;;;-0.90;99.90;;;;;;5074993;28;20114;-77
2024/01/17 03:51:15;;;;;;;52.88;41.45;;;-0.90;99.90;;;;;;5072061;28;20501;-77
2024/01/17 03:53:41;;;;;;;51.60;42.03;;;-0.90;99.90;;;;;;5082891;28;20490;-77
2024/01/17 03:56:06;;;;;;;54.53;41.72;;;-0.90;99.90;;;;;;5075215;28;20084;-77
2024/01/17 03:58:32;;;;;;;49.53;40.55;;;-0.90;99.90;;;;;;5073533;28;20041;-77
2024/01/17 04:01:00;;;;;;;22.20;11.05;;;-0.90;99.90;;;;;;5074173;28;20155;-77
2024/01/17 04:03:26;;;;;;;56.40;40.53;;;-0.90;99.90;;;;;;5072652;28;20055;-77
2024/01/17 04:05:51;;;;;;;48.53;41.70;;;-0.90;99.90;;;;;;5082793;28;20053;-77
2024/01/17 04:08:17;;;;;;;53.67;39.85;;;-0.90;99.90;;;;;;5077184;28;20415;-77
2024/01/17 04:10:43;;;;;;;50.38;38.78;;;-0.90;99.90;;;;;;5073597;28;20056;-77
2024/01/17 04:13:08;;;;;;;53.05;38.80;;;-0.90;99.90;;;;;;5069288;28;20040;-77
2024/01/17 04:15:34;;;;;;;45.92;39.05;;;-0.90;99.90;;;;;;5080741;28;20040;-77
2024/01/17 04:17:59;;;;;;;49.78;39.47;;;-0.90;99.90;;;;;;5073080;28;20049;-77
2024/01/17 04:20:25;;;;;;;49.45;37.58;;;-0.90;99.90;;;;;;5077944;28;20050;-77
2024/01/17 04:22:50;;;;;;;52.10;39.97;;;-0.90;99.90;;;;;;5077684;28;20054;-77
2024/01/17 04:25:16;;;;;;;48.60;38.72;;;-0.90;99.90;;;;;;5070684;28;20076;-77
2024/01/17 04:27:42;;;;;;;44.80;37.42;;;-0.90;99.90;;;;;;5077869;28;20072;-77
2024/01/17 04:30:11;;;;;;;49.25;38.70;;;-0.90;99.90;;;;;;5080337;28;20125;-77
2024/01/17 04:32:37;;;;;;;48.63;36.80;;;-1.00;99.90;;;;;;5077660;28;20497;-77
2024/01/17 04:35:04;;;;;;;44.55;36.42;;;-1.00;99.90;;;;;;5072784;28;20815;-76
2024/01/17 04:37:30;;;;;;;55.08;38.80;;;-1.00;99.90;;;;;;5077245;28;20428;-77
2024/01/17 04:39:57;;;;;;;45.17;37.55;;;-1.00;99.90;;;;;;5076448;28;20049;-77
2024/01/17 04:42:22;;;;;;;44.08;36.97;;;-1.00;99.90;;;;;;5079898;28;20060;-77
2024/01/17 04:44:49;;;;;;;16.05;8.02;;;-1.00;99.90;;;;;;5076853;28;20113;-77
2024/01/17 04:47:15;;;;;;;49.70;36.97;;;-1.00;99.90;;;;;;5079212;28;20127;-77
2024/01/17 04:49:42;;;;;;;50.90;37.00;;;-1.00;99.90;;;;;;5073679;28;20051;-77
2024/01/17 04:52:09;;;;;;;46.65;34.33;;;-1.00;99.90;;;;;;5081431;28;20056;-77
2024/01/17 04:54:35;;;;;;;16.33;8.80;;;-1.00;99.90;;;;;;5068321;28;20056;-77
2024/01/17 04:57:01;;;;;;;45.03;37.10;;;-1.00;99.90;;;;;;5082491;28;20047;-77
2024/01/17 04:59:26;;;;;;;43.70;36.47;;;-1.00;99.90;;;;;;5077520;28;22940;-78
2024/01/17 05:01:52;;;;;;;40.33;34.65;;;-1.00;99.90;;;;;;5079064;28;20059;-77
2024/01/17 05:04:18;;;;;;;48.58;36.38;;;-1.00;99.90;;;;;;5083897;28;20044;-77
2024/01/17 05:06:44;;;;;;;45.28;34.92;;;-1.00;99.90;;;;;;5078913;28;20067;-77
2024/01/17 05:09:11;;;;;;;42.72;35.10;;;-1.00;99.90;;;;;;5079090;28;20052;-77
2024/01/17 05:11:37;;;;;;;38.37;34.27;;;-1.00;99.90;;;;;;5079343;28;20101;-77
2024/01/17 05:14:03;;;;;;;41.65;35.45;;;-1.00;99.90;;;;;;5075188;28;20448;-77
2024/01/17 05:16:29;;;;;;;41.72;33.60;;;-1.00;99.90;;;;;;5081895;28;20042;-77
2024/01/17 05:18:54;;;;;;;44.25;36.33;;;-1.00;99.90;;;;;;5080436;28;20040;-77
2024/01/17 05:21:20;;;;;;;44.25;34.92;;;-1.00;99.90;;;;;;5087380;28;20036;-77
2024/01/17 05:23:45;;;;;;;41.50;34.10;;;-1.00;99.90;;;;;;5085541;28;20479;-77
2024/01/17 05:26:11;;;;;;;45.17;33.70;;;-1.00;99.90;;;;;;5086368;28;20043;-77
2024/01/17 05:28:36;;;;;;;39.95;33.55;;;-1.00;99.90;;;;;;5073232;28;20040;-77
2024/01/17 05:31:02;;;;;;;44.38;34.47;;;-1.00;99.90;;;;;;5071847;28;20048;-77
2024/01/17 05:33:28;;;;;;;37.25;33.03;;;-1.00;99.90;;;;;;5081832;28;20118;-77
2024/01/17 05:35:53;;;;;;;48.58;32.97;;;-1.00;99.90;;;;;;5076368;28;20044;-77
2024/01/17 05:38:19;;;;;;;45.10;33.20;;;-1.00;99.90;;;;;;5066944;28;20044;-77
2024/01/17 05:40:45;;;;;;;43.58;34.97;;;-0.90;99.90;;;;;;5068833;28;20057;-77
2024/01/17 05:43:10;;;;;;;42.15;32.28;;;-1.00;99.90;;;;;;5073794;28;20044;-77
2024/01/17 05:45:36;;;;;;;40.50;31.70;;;-1.00;99.90;;;;;;5069801;28;20059;-77
2024/01/17 05:48:02;;;;;;;37.70;33.03;;;-0.90;99.90;;;;;;5071121;28;20546;-77
2024/01/17 05:50:28;;;;;;;42.42;32.22;;;-0.90;99.90;;;;;;5080360;28;20043;-77
2024/01/17 05:52:53;;;;;;;39.70;31.60;;;-0.90;99.90;;;;;;5070488;28;20128;-77
2024/01/17 05:55:20;;;;;;;46.85;33.95;;;-0.90;99.90;;;;;;5085285;28;20044;-76
2024/01/17 05:57:46;;;;;;;46.47;32.80;;;-0.90;99.90;;;;;;5069195;28;20399;-77
2024/01/17 06:00:14;;;;;;;8.85;6.80;;;-0.90;99.90;;;;;;5067789;28;20048;-77
2024/01/17 06:02:40;;;;;;;38.72;32.20;;;-1.00;99.90;;;;;;5070108;28;20577;-78
2024/01/17 06:05:07;;;;;;;38.42;31.40;;;-1.00;99.90;;;;;;5079288;28;20048;-77
2024/01/17 06:07:35;;;;;;;42.00;33.40;;;-0.90;99.90;;;;;;5062194;28;20118;-78
2024/01/17 06:10:01;;;;;;;41.43;33.40;;;-0.90;99.90;;;;;;5078041;28;20071;-77
2024/01/17 06:12:26;;;;;;;42.20;32.47;;;-0.90;99.90;;;;;;5085166;28;20485;-77
2024/01/17 06:14:52;;;;;;;43.80;31.27;;;-0.90;99.90;;;;;;5085981;28;20051;-77
2024/01/17 06:17:18;;;;;;;19.15;8.45;;;-0.90;99.90;;;;;;5075585;28;20090;-77
2024/01/17 06:19:44;;;;;;;36.53;29.92;;;-1.00;99.90;;;;;;5083669;28;20052;-77
2024/01/17 06:22:10;;;;;;;49.05;32.38;;;-1.00;99.90;;;;;;5070909;28;20560;-77
2024/01/17 06:24:36;;;;;;;40.83;31.60;;;-1.00;99.90;;;;;;5081627;28;20069;-78
2024/01/17 06:27:02;;;;;;;38.85;30.73;;;-1.00;99.90;;;;;;5073355;28;20071;-77
2024/01/17 06:29:33;;;;;;;41.72;32.78;;;-1.00;99.90;;;;;;5071506;28;20040;-78
2024/01/17 06:32:00;;;;;;;39.85;31.23;;;-1.00;99.90;;;;;;5075062;28;20055;-78
2024/01/17 06:34:26;;;;;;;35.20;31.15;;;-1.00;99.90;;;;;;5071235;28;20399;-78
2024/01/17 06:36:51;;;;;;;39.42;32.40;;;-1.00;99.90;;;;;;5069452;28;20054;-77
2024/01/17 06:39:17;;;;;;;43.00;32.20;;;-1.00;99.90;;;;;;5051609;28;20047;-77
2024/01/17 06:41:43;;;;;;;36.50;30.75;;;-1.00;99.90;;;;;;5071286;28;20109;-77
2024/01/17 06:44:10;;;;;;;40.35;31.23;;;-1.00;99.90;;;;;;5055577;28;20035;-77
2024/01/17 06:46:36;;;;;;;38.40;31.77;;;-1.10;99.90;;;;;;5084342;28;20091;-77
2024/01/17 06:49:02;;;;;;;38.50;30.60;;;-1.10;99.90;;;;;;5080076;28;20130;-77
2024/01/17 06:51:27;;;;;;;40.10;32.88;;;-1.10;99.90;;;;;;5066844;28;20439;-78
2024/01/17 06:53:53;;;;;;;40.28;33.40;;;-1.10;99.90;;;;;;5085214;28;20056;-77
2024/01/17 06:56:19;;;;;;;44.97;33.58;;;-1.10;99.90;;;;;;5080473;28;20127;-77
2024/01/17 06:58:44;;;;;;;45.42;31.63;;;-1.10;99.90;;;;;;5075804;28;20394;-77
2024/01/17 07:01:10;;;;;;;39.28;32.03;;;-1.10;99.90;;;;;;5083756;28;20401;-77
2024/01/17 07:03:36;;;;;;;42.42;34.15;;;-1.20;99.90;;;;;;5083848;28;20054;-77
2024/01/17 07:06:04;;;;;;;45.60;35.08;;;-1.20;99.90;;;;;;5074737;28;20498;-77
2024/01/17 07:08:30;;;;;;;40.78;32.17;;;-1.20;99.90;;;;;;5071362;28;20060;-77
2024/01/17 07:10:55;;;;;;;43.63;32.75;;;-1.30;99.90;;;;;;5071471;28;20048;-77
2024/01/17 07:13:21;;;;;;;41.78;34.10;;;-1.30;99.90;;;;;;5068932;28;20216;-78
2024/01/17 07:15:46;;;;;;;46.15;33.95;;;-1.40;99.90;;;;;;5068066;28;20044;-77
2024/01/17 07:18:12;;;;;;;35.25;31.38;;;-1.40;99.90;;;;;;5080654;28;20098;-77
2024/01/17 07:20:38;;;;;;;47.05;32.88;;;-1.40;99.90;;;;;;5082798;28;20040;-76
2024/01/17 07:23:04;;;;;;;38.17;32.72;;;-1.50;99.90;;;;;;5072947;28;20051;-76
2024/01/17 07:25:31;;;;;;;45.22;32.80;;;-1.50;99.90;;;;;;5077713;28;20047;-77
2024/01/17 07:27:56;;;;;;;38.50;32.17;;;-1.50;99.90;;;;;;5080891;28;20555;-76
2024/01/17 07:30:22;;;;;;;10.25;6.18;;;-1.60;99.90;;;;;;5079627;28;20044;-76
2024/01/17 07:32:48;;;;;;;43.45;33.50;;;-1.60;99.90;;;;;;5077576;28;20044;-77
2024/01/17 07:35:14;;;;;;;40.85;33.42;;;-1.60;99.90;;;;;;5086701;28;20051;-76
2024/01/17 07:37:39;;;;;;;45.95;32.15;;;-1.60;99.90;;;;;;5083839;28;20047;-76
2024/01/17 07:40:06;;;;;;;37.78;32.03;;;-1.60;99.90;;;;;;5071174;28;20047;-76
2024/01/17 07:42:31;;;;;;;40.75;32.72;;;-1.70;99.90;;;;;;5073705;28;20056;-76
2024/01/17 07:44:57;;;;;;;44.08;32.83;;;-1.70;99.90;;;;;;5074009;28;20575;-76
2024/01/17 07:47:23;;;;;;;43.17;33.40;;;-1.70;99.90;;;;;;5073340;28;20843;-76
2024/01/17 07:49:48;;;;;;;42.40;32.20;;;-1.70;99.90;;;;;;5075960;28;20115;-77
2024/01/17 07:52:14;;;;;;;40.33;31.33;;;-1.70;99.90;;;;;;5078279;28;20048;-77
2024/01/17 07:54:40;;;;;;;41.50;32.15;;;-1.70;99.90;;;;;;5075898;28;20452;-77
2024/01/17 07:57:05;;;;;;;42.28;32.15;;;-1.70;99.90;;;;;;5088747;28;20600;-77
2024/01/17 07:59:31;;;;;;;42.03;31.98;;;-1.80;99.90;;;;;;5075865;28;20031;-76
2024/01/17 08:01:57;;;;;;;35.45;30.60;;;-1.80;99.90;;;;;;5077185;28;20180;-76
2024/01/17 08:04:23;;;;;;;42.45;32.72;;;-1.80;99.90;;;;;;5086133;28;20117;-76
2024/01/17 08:06:49;;;;;;;32.53;28.83;;;-1.80;99.90;;;;;;5081508;28;20070;-76
2024/01/17 08:09:21;;;;;;;39.85;30.10;;;-1.90;99.90;;;;;;5077259;28;20036;-76
2024/01/17 08:11:52;;;;;;;39.00;29.48;;;-1.90;99.90;;;;;;5079470;28;20535;-76
2024/01/17 08:14:18;;;;;;;43.42;32.30;;;-1.90;99.90;;;;;;5074140;28;20067;-75
2024/01/17 08:16:45;;;;;;;35.15;29.52;;;-1.90;99.90;;;;;;5075098;28;20076;-76
2024/01/17 08:19:11;;;;;;;42.10;30.92;;;-1.90;99.90;;;;;;5071509;28;20048;-75
2024/01/17 08:21:37;;;;;;;38.67;30.50;;;-1.90;99.90;;;;;;5077227;28;20146;-76
2024/01/17 08:24:02;;;;;;;36.53;29.92;;;-1.90;99.90;;;;;;5075264;28;20524;-75
2024/01/17 08:26:28;;;;;;;43.92;27.98;;;-1.90;99.90;;;;;;5083908;28;20040;-76
2024/01/17 08:28:55;;;;;;;35.83;28.48;;;-1.90;99.90;;;;;;5088268;28;20139;-76
2024/01/17 08:31:20;;;;;;;35.00;28.05;;;-1.90;99.90;;;;;;5078475;28;20052;-76
2024/01/17 08:33:46;;;;;;;36.38;30.45;;;-1.90;99.90;;;;;;5080925;28;20444;-76
2024/01/17 08:36:14;;;;;;;34.58;29.60;;;-1.90;99.90;;;;;;5080300;28;20040;-76
2024/01/17 08:38:40;;;;;;;36.08;30.58;;;-1.90;99.90;;;;;;5076997;28;20097;-76
2024/01/17 08:41:06;;;;;;;39.00;28.13;;;-1.90;99.90;;;;;;5084459;28;20044;-76
2024/01/17 08:43:31;;;;;;;35.25;29.45;;;-1.90;99.90;;;;;;5080007;28;20082;-76
2024/01/17 08:45:57;;;;;;;34.85;28.92;;;-1.90;99.90;;;;;;5078310;28;20135;-78
2024/01/17 08:48:22;;;;;;;35.50;28.27;;;-1.90;99.90;;;;;;5085945;28;20040;-76
2024/01/17 08:50:48;;;;;;;38.33;29.55;;;-1.90;99.90;;;;;;5074924;28;20480;-76
2024/01/17 08:53:15;;;;;;;36.45;30.02;;;-1.90;99.90;;;;;;5077183;28;20067;-76
2024/01/17 08:55:41;;;;;;;7.80;5.53;;;-1.90;99.90;;;;;;5069249;28;20493;-77
2024/01/17 08:58:06;;;;;;;36.80;28.42;;;-1.90;99.90;;;;;;5087989;28;20059;-77
2024/01/17 09:00:32;;;;;;;31.25;26.45;;;-1.90;99.90;;;;;;5077331;28;20512;-76
2024/01/17 09:02:57;;;;;;;34.90;27.35;;;-1.90;99.90;;;;;;5077353;28;20040;-76
2024/01/17 09:05:26;;;;;;;36.22;28.48;;;-1.80;99.90;;;;;;5073371;28;20048;-76
2024/01/17 09:07:53;;;;;;;39.40;28.58;;;-1.80;99.90;;;;;;5074642;28;20050;-77
2024/01/17 09:10:19;;;;;;;40.40;26.88;;;-1.80;99.90;;;;;;5070476;28;20032;-76
2024/01/17 09:12:44;;;;;;;34.17;27.50;;;-1.80;99.90;;;;;;5077755;28;20081;-76
2024/01/17 09:15:11;;;;;;;35.55;27.48;;;-1.70;99.90;;;;;;5073958;28;20097;-76
2024/01/17 09:17:36;;;;;;;38.45;26.50;;;-1.70;99.90;;;;;;5082450;28;20676;-77
2024/01/17 09:20:04;;;;;;;33.70;26.85;;;-1.70;99.90;;;;;;5077500;28;20127;-76
2024/01/17 09:22:29;;;;;;;33.95;27.40;;;-1.60;99.90;;;;;;5075965;28;20398;-76
2024/01/17 09:24:55;;;;;;;37.67;27.30;;;-1.60;99.90;;;;;;5067820;28;20052;-76
2024/01/17 09:27:21;;;;;;;31.13;25.17;;;-1.60;99.90;;;;;;5071934;28;20066;-76
2024/01/17 09:29:47;;;;;;;29.55;25.70;;;-1.60;99.90;;;;;;5071206;28;20048;-76
2024/01/17 09:32:13;;;;;;;30.70;27.40;;;-1.60;99.90;;;;;;5083023;28;20052;-76
2024/01/17 09:34:39;;;;;;;38.25;27.40;;;-1.50;99.90;;;;;;5071829;28;20047;-76
2024/01/17 09:37:05;;;;;;;9.95;5.82;;;-1.50;99.90;;;;;;5077221;28;20059;-76
2024/01/17 09:39:31;;;;;;;31.95;25.90;;;-1.50;99.90;;;;;;5083634;28;20053;-76
2024/01/17 09:41:59;;;;;;;33.47;25.85;;;-1.50;99.90;;;;;;5072775;28;20119;-76
2024/01/17 09:44:25;;;;;;;;;;;-1.40;99.90;;;;;;5071090;28;20497;-75
2024/01/17 09:46:51;;;;;;;10.15;7.68;;;-1.40;99.90;;;;;;5081702;28;19923;-76
2024/01/17 09:49:17;;;;;;;30.30;26.95;;;-1.40;99.90;;;;;;5076806;28;20043;-76
2024/01/17 09:51:43;;;;;;;33.00;26.35;;;-1.30;99.90;;;;;;5082684;28;20040;-75
2024/01/17 09:54:10;;;;;;;31.75;26.52;;;-1.20;99.90;;;;;;5074699;28;20040;-76
2024/01/17 09:56:37;;;;;;;32.22;26.70;;;-1.20;99.90;;;;;;5078197;28;20041;-76
2024/01/17 09:59:14;;;;;;;32.42;25.90;;;-1.10;99.90;;;;;;5076733;28;20079;-76
2024/01/17 10:01:40;;;;;;;35.65;26.55;;;-1.10;99.90;;;;;;5083883;28;20082;-76
2024/01/17 10:04:07;;;;;;;31.55;26.95;;;-1.00;99.90;;;;;;5073688;28;20074;-76
2024/01/17 10:06:34;;;;;;;29.77;26.58;;;-1.00;99.90;;;;;;5079244;28;20048;-76
2024/01/17 10:09:00;;;;;;;34.63;25.75;;;-0.90;99.90;;;;;;5077349;28;20044;-76
2024/01/17 10:11:26;;;;;;;31.73;26.65;;;-0.90;99.90;;;;;;5087142;28;20043;-76
2024/01/17 10:13:52;;;;;;;34.22;27.73;;;-0.90;99.90;;;;;;5080184;28;20037;-76
2024/01/17 10:16:18;;;;;;;36.35;27.30;;;-0.80;99.90;;;;;;5084477;28;20032;-78
2024/01/17 10:18:43;;;;;;;32.47;26.10;;;-0.80;99.90;;;;;;5077666;28;20091;-76
2024/01/17 10:21:09;;;;;;;29.40;25.10;;;-0.70;99.90;;;;;;5084814;28;20036;-76
2024/01/17 10:23:38;;;;;;;21.73;7.30;;;-0.80;99.90;;;;;;5084484;28;20052;-76
2024/01/17 10:26:04;;;;;;;31.75;25.88;;;-0.70;99.90;;;;;;5066393;28;20063;-75
2024/01/17 10:28:33;;;;;;;31.90;26.60;;;-0.70;99.90;;;;;;5074121;28;20045;-76
2024/01/17 10:31:01;;;;;;;;;;;-0.60;99.90;;;;;;5080570;28;20490;-75
2024/01/17 10:33:27;;;;;;;33.05;26.00;;;-0.70;99.90;;;;;;5074723;28;19920;-75
2024/01/17 10:35:52;;;;;;;32.42;26.75;;;-0.60;99.90;;;;;;5073897;28;20114;-75
2024/01/17 10:38:18;;;;;;;30.25;25.88;;;-0.60;99.90;;;;;;5066876;28;20771;-75
2024/01/17 10:40:44;;;;;;;28.83;24.63;;;-0.50;99.90;;;;;;5083752;28;20216;-76
2024/01/17 10:43:10;;;;;;;32.50;25.35;;;-0.50;99.90;;;;;;5077029;28;20449;-75
2024/01/17 10:45:39;;;;;;;30.60;27.08;;;-0.40;99.90;;;;;;5080655;28;20050;-75
2024/01/17 10:48:06;;;;;;;32.92;27.33;;;-0.40;99.90;;;;;;5079108;28;20037;-75
2024/01/17 10:50:32;;;;;;;34.70;27.23;;;-0.40;99.90;;;;;;5078925;28;20044;-76
2024/01/17 10:53:05;;;;;;;33.17;26.17;;;-0.40;99.90;;;;;;5072033;28;20052;-75
2024/01/17 10:55:34;;;;;;;37.08;25.05;;;-0.40;99.90;;;;;;5074816;28;20071;-77
2024/01/17 10:58:02;;;;;;;30.90;25.50;;;-0.40;99.90;;;;;;5077003;28;20052;-76
2024/01/17 11:00:31;;;;;;;33.42;25.35;;;-0.40;99.90;;;;;;5071990;28;20040;-76
2024/01/17 11:03:07;;;;;;;27.55;24.48;;;-0.40;99.90;;;;;;5091911;28;20423;-76
2024/01/17 11:05:38;;;;;;;29.60;24.05;;;-0.40;99.90;;;;;;5072645;28;20048;-76
2024/01/17 11:08:04;;;;;;;40.78;27.70;;;-0.30;99.90;;;;;;5081049;28;20056;-76
2024/01/17 11:10:31;;;;;;;30.20;25.17;;;-0.30;99.90;;;;;;5096687;28;20069;-77
2024/01/17 11:12:57;;;;;;;33.28;24.77;;;-0.20;99.90;;;;;;5078148;28;20509;-76
2024/01/17 11:15:26;;;;;;;33.97;25.45;;;-0.20;99.90;;;;;;5078221;28;20127;-76
2024/01/17 11:17:56;;;;;;;31.50;24.60;;;-0.20;99.90;;;;;;5082912;28;20048;-76
2024/01/17 11:20:23;;;;;;;29.55;25.77;;;-0.20;99.90;;;;;;5080043;28;20047;-76
2024/01/17 11:22:53;;;;;;;31.35;25.52;;;-0.20;99.90;;;;;;5072225;28;20131;-76
2024/01/17 11:25:37;;;;;;;29.80;25.90;;;-0.10;99.90;;;;;;5084388;28;20056;-77
2024/01/17 11:28:12;;;;;;;33.38;27.20;;;-0.10;99.90;;;;;;5086240;28;20730;-76
2024/01/17 11:30:57;;;;;;;36.20;25.33;;;-0.10;99.90;;;;;;5076750;28;20131;-77
2024/01/17 11:33:25;;;;;;;42.17;27.00;;;-0.10;99.90;;;;;;5079351;28;20044;-77
2024/01/17 11:35:53;;;;;;;32.45;27.15;;;-0.10;99.90;;;;;;5083857;28;20039;-77
2024/01/17 11:38:24;;;;;;;29.75;24.70;;;0.00;99.90;;;;;;5079381;28;20043;-77
2024/01/17 11:40:51;;;;;;;31.15;25.67;;;0.00;99.90;;;;;;5083660;28;20094;-77
2024/01/17 11:43:20;;;;;;;35.45;26.27;;;0.00;99.90;;;;;;5090862;28;20043;-77
2024/01/17 11:45:53;;;;;;;;;;;0.00;99.90;;;;;;5090061;28;20059;-77
2024/01/17 11:48:26;;;;;;;38.17;27.60;;;0.00;99.90;;;;;;5082433;28;20634;-77
2024/01/17 11:51:14;;;;;;;31.48;24.70;;;0.00;99.90;;;;;;5080241;28;20044;-77
2024/01/17 11:53:42;;;;;;;28.90;25.67;;;0.00;99.90;;;;;;5089299;28;20133;-77
2024/01/17 11:56:09;;;;;;;33.80;26.38;;;0.00;99.90;;;;;;5076051;28;20051;-77
2024/01/17 11:58:40;;;;;;;37.03;25.27;;;0.10;99.90;;;;;;5091647;28;20044;-77
2024/01/17 12:01:07;;;;;;;32.78;25.00;;;0.10;99.90;;;;;;5094227;28;20052;-77
2024/01/17 12:03:33;;;;;;;33.25;26.75;;;0.10;99.90;;;;;;5081844;28;20753;-78
2024/01/17 12:06:00;;;;;;;36.85;26.77;;;0.10;99.90;;;;;;5077343;28;20056;-77
2024/01/17 12:08:27;;;;;;;35.60;25.98;;;0.10;99.90;;;;;;5079184;28;20097;-78
2024/01/17 12:10:54;;;;;;;44.42;31.08;;;0.10;99.90;;;;;;5083241;28;20047;-77
2024/01/17 12:13:22;;;;;;;35.63;26.35;;;0.10;99.90;;;;;;5079386;28;20059;-78
2024/01/17 12:15:51;;;;;;;42.92;27.85;;;0.20;99.90;;;;;;5087499;28;20040;-78
2024/01/17 12:18:22;;;;;;;34.20;24.33;;;0.20;99.90;;;;;;5084116;28;20040;-77
2024/01/17 12:20:48;;;;;;;32.60;25.05;;;0.20;99.90;;;;;;5076772;28;20147;-78
2024/01/17 12:23:17;;;;;;;34.38;26.50;;;0.30;99.90;;;;;;5080954;28;20159;-78
2024/01/17 12:25:43;;;;;;;43.53;26.27;;;0.30;99.90;;;;;;5069821;28;20071;-78